createdAt,value
2019-05-11T00:00:20.824Z,8.75
2019-05-11T00:01:21.900Z,8.13
2019-05-11T00:02:23.040Z,11.15
2019-05-11T00:03:24.193Z,8.43
2019-05-11T00:04:25.249Z,9.93
2019-05-11T00:05:26.296Z,8.93
2019-05-11T00:06:27.352Z,7.35
2019-05-11T00:07:28.511Z,8.50
2019-05-11T00:08:29.592Z,11.50
2019-05-11T00:09:30.644Z,9.93
2019-05-11T00:10:31.800Z,7.95
2019-05-11T00:11:32.864Z,7.47
2019-05-11T00:12:34.000Z,10.00
2019-05-11T00:13:35.057Z,10.03
2019-05-11T00:14:36.104Z,7.30
2019-05-11T00:15:37.147Z,9.33
2019-05-11T00:16:38.195Z,8.85
2019-05-11T00:17:39.265Z,10.90
2019-05-11T00:18:40.345Z,8.35
2019-05-11T00:19:41.468Z,9.30
2019-05-11T00:20:42.520Z,8.63
2019-05-11T00:21:43.579Z,10.63
2019-05-11T00:22:44.634Z,8.58
2019-05-11T00:23:45.701Z,10.98
2019-05-11T00:24:46.768Z,10.08
2019-05-11T00:25:48.151Z,12.25
2019-05-11T00:26:49.208Z,13.45
2019-05-11T00:27:50.280Z,10.18
2019-05-11T00:28:51.327Z,7.97
2019-05-11T00:29:52.573Z,10.70
2019-05-11T00:30:53.627Z,11.35
2019-05-11T00:31:54.676Z,9.63
2019-05-11T00:32:55.737Z,9.03
2019-05-11T00:33:56.983Z,10.10
2019-05-11T00:34:58.140Z,12.45
2019-05-11T00:35:59.293Z,9.50
2019-05-11T00:37:00.348Z,11.05
2019-05-11T00:38:01.532Z,9.88
2019-05-11T00:39:05.980Z,9.95
2019-05-11T00:40:14.375Z,9.65
2019-05-11T00:41:10.388Z,9.80
2019-05-11T00:42:11.435Z,10.60
2019-05-11T00:43:12.488Z,9.40
2019-05-11T00:44:13.540Z,13.00
2019-05-11T00:45:14.696Z,8.25
2019-05-11T00:46:15.739Z,8.30
2019-05-11T00:47:16.787Z,11.03
2019-05-11T00:48:17.844Z,11.00
2019-05-11T00:49:18.899Z,8.90
2019-05-11T00:50:19.944Z,10.80
2019-05-11T00:51:21.056Z,10.50
2019-05-11T00:52:22.120Z,12.00
2019-05-11T00:53:23.183Z,10.40
2019-05-11T00:54:24.231Z,9.15
2019-05-11T00:55:25.288Z,8.65
2019-05-11T00:56:26.363Z,8.90
2019-05-11T00:57:27.411Z,13.70
2019-05-11T00:58:28.480Z,8.78
2019-05-11T00:59:29.528Z,9.58
2019-05-11T01:00:30.827Z,8.40
2019-05-11T01:01:31.910Z,12.73
2019-05-11T01:02:33.176Z,8.60
2019-05-11T01:03:34.241Z,9.40
2019-05-11T01:04:35.298Z,9.13
2019-05-11T01:05:36.457Z,12.13
2019-05-11T01:06:37.589Z,11.55
2019-05-11T01:07:38.740Z,8.95
2019-05-11T01:08:39.811Z,8.18
2019-05-11T01:09:40.855Z,8.43
2019-05-11T01:10:42.878Z,10.38
2019-05-11T01:11:44.096Z,8.45
2019-05-11T01:12:45.148Z,8.33
2019-05-11T01:13:46.229Z,8.90
2019-05-11T01:14:47.369Z,10.43
2019-05-11T01:15:48.426Z,8.63
2019-05-11T01:16:49.470Z,8.50
2019-05-11T01:17:50.515Z,11.68
2019-05-11T01:18:51.887Z,12.13
2019-05-11T01:19:53.228Z,9.30
2019-05-11T01:20:54.272Z,9.80
2019-05-11T01:21:55.563Z,8.45
2019-05-11T01:22:56.624Z,10.18
2019-05-11T01:23:57.776Z,10.20
2019-05-11T01:24:58.819Z,8.28
2019-05-11T01:25:59.883Z,7.72
2019-05-11T01:27:00.933Z,8.18
2019-05-11T01:28:01.990Z,10.65
2019-05-11T01:29:03.047Z,6.85
2019-05-11T01:30:05.609Z,10.23
2019-05-11T01:31:06.663Z,10.00
2019-05-11T01:32:07.720Z,12.03
2019-05-11T01:33:08.801Z,9.80
2019-05-11T01:34:09.952Z,10.10
2019-05-11T01:35:11.095Z,9.35
2019-05-11T01:36:12.152Z,11.48
2019-05-11T01:37:13.215Z,9.78
2019-05-11T01:38:14.575Z,8.85
2019-05-11T01:39:15.701Z,11.30
2019-05-11T01:40:16.926Z,10.50
2019-05-11T01:41:17.969Z,12.07
2019-05-11T01:42:19.020Z,12.82
2019-05-11T01:43:20.075Z,11.57
2019-05-11T01:44:21.149Z,7.97
2019-05-11T01:45:22.189Z,12.10
2019-05-11T01:46:23.231Z,10.32
2019-05-11T01:47:24.280Z,9.00
2019-05-11T01:48:25.349Z,8.90
2019-05-11T01:49:26.506Z,11.90
2019-05-11T01:50:27.551Z,10.50
2019-05-11T01:51:28.596Z,9.93
2019-05-11T01:52:29.605Z,8.48
2019-05-11T01:53:30.657Z,8.68
2019-05-11T01:54:31.710Z,9.30
2019-05-11T01:55:32.971Z,8.60
2019-05-11T01:56:33.984Z,10.35
2019-05-11T01:57:35.004Z,8.95
2019-05-11T01:58:36.012Z,11.18
2019-05-11T01:59:37.024Z,8.93
2019-05-11T02:00:38.046Z,10.95
2019-05-11T02:01:39.056Z,6.25
2019-05-11T02:02:40.072Z,10.50
2019-05-11T02:03:41.087Z,7.62
2019-05-11T02:04:42.179Z,8.28
2019-05-11T02:05:43.164Z,8.30
2019-05-11T02:06:44.464Z,8.83
2019-05-11T02:07:45.478Z,8.63
2019-05-11T02:08:46.484Z,6.62
2019-05-11T02:09:47.713Z,6.53
2019-05-11T02:10:48.720Z,9.33
2019-05-11T02:11:49.737Z,10.80
2019-05-11T02:12:51.357Z,6.67
2019-05-11T02:13:52.348Z,8.18
2019-05-11T02:14:53.381Z,10.13
2019-05-11T02:15:54.380Z,10.90
2019-05-11T02:16:55.495Z,6.92
2019-05-11T02:17:56.496Z,9.00
2019-05-11T02:18:57.515Z,6.42
2019-05-11T02:19:58.539Z,10.58
2019-05-11T02:20:59.564Z,6.15
2019-05-11T02:22:00.876Z,7.40
2019-05-11T02:23:01.884Z,8.10
2019-05-11T02:24:02.894Z,8.78
2019-05-11T02:25:05.518Z,7.10
2019-05-11T02:26:06.532Z,4.47
2019-05-11T02:27:07.609Z,5.22
2019-05-11T02:28:08.613Z,7.10
2019-05-11T02:29:09.628Z,7.90
2019-05-11T02:30:11.249Z,6.55
2019-05-11T02:31:12.257Z,7.33
2019-05-11T02:32:13.279Z,6.08
2019-05-11T02:33:14.296Z,9.23
2019-05-11T02:34:15.322Z,8.65
2019-05-11T02:35:16.325Z,6.20
2019-05-11T02:36:17.333Z,7.40
2019-05-11T02:37:18.341Z,8.58
2019-05-11T02:38:19.664Z,5.62
2019-05-11T02:39:20.678Z,6.28
2019-05-11T02:40:22.301Z,6.75
2019-05-11T02:41:35.330Z,6.80
2019-05-11T02:42:26.234Z,9.63
2019-05-11T02:43:27.241Z,5.65
2019-05-11T02:44:28.546Z,6.40
2019-05-11T02:45:38.579Z,6.08
2019-05-11T02:46:39.673Z,7.20
2019-05-11T02:47:40.693Z,5.92
2019-05-11T02:48:41.804Z,7.37
2019-05-11T02:49:42.828Z,5.80
2019-05-11T02:50:43.839Z,6.70
2019-05-11T02:51:45.152Z,8.80
2019-05-11T02:52:46.657Z,8.50
2019-05-11T02:53:48.273Z,6.62
2019-05-11T02:54:49.276Z,6.45
2019-05-11T02:55:51.113Z,9.15
2019-05-11T02:56:52.136Z,6.37
2019-05-11T02:57:53.132Z,7.55
2019-05-11T02:58:54.159Z,6.67
2019-05-11T02:59:55.263Z,8.45
2019-05-11T03:00:56.281Z,6.70
2019-05-11T03:01:57.296Z,6.10
2019-05-11T03:02:58.324Z,6.17
2019-05-11T03:03:59.351Z,5.92
2019-05-11T03:05:00.661Z,8.95
2019-05-11T03:06:01.706Z,6.83
2019-05-11T03:07:08.326Z,6.35
2019-05-11T03:08:09.443Z,7.80
2019-05-11T03:09:10.464Z,8.50
2019-05-11T03:10:11.689Z,7.10
2019-05-11T03:11:12.754Z,6.50
2019-05-11T03:12:13.829Z,8.25
2019-05-11T03:13:14.843Z,8.00
2019-05-11T03:14:15.847Z,6.30
2019-05-11T03:15:17.072Z,7.10
2019-05-11T03:16:18.313Z,5.67
2019-05-11T03:17:26.957Z,7.62
2019-05-11T03:18:28.171Z,8.40
2019-05-11T03:19:29.178Z,5.40
2019-05-11T03:20:30.197Z,5.08
2019-05-11T03:21:31.236Z,6.78
2019-05-11T03:22:32.320Z,6.65
2019-05-11T03:23:33.393Z,7.12
2019-05-11T03:24:34.401Z,8.38
2019-05-11T03:25:35.433Z,5.90
2019-05-11T03:26:36.445Z,5.95
2019-05-11T03:27:37.453Z,7.37
2019-05-11T03:28:38.471Z,5.05
2019-05-11T03:29:39.484Z,4.65
2019-05-11T03:30:40.509Z,6.20
2019-05-11T03:31:41.520Z,8.10
2019-05-11T03:32:42.629Z,7.70
2019-05-11T03:33:43.641Z,5.78
2019-05-11T03:34:44.657Z,5.70
2019-05-11T03:35:45.683Z,7.80
2019-05-11T03:36:46.694Z,6.05
2019-05-11T03:37:48.111Z,6.55
2019-05-11T03:38:49.137Z,6.33
2019-05-11T03:39:50.152Z,8.28
2019-05-11T03:40:51.173Z,7.55
2019-05-11T03:41:52.185Z,6.25
2019-05-11T03:42:53.219Z,6.30
2019-05-11T03:43:54.238Z,5.87
2019-05-11T03:44:55.244Z,7.00
2019-05-11T03:45:56.270Z,6.80
2019-05-11T03:46:57.280Z,7.37
2019-05-11T03:47:58.301Z,4.15
2019-05-11T03:48:59.329Z,7.60
2019-05-11T03:50:00.338Z,5.35
2019-05-11T03:51:01.362Z,6.03
2019-05-11T03:52:02.393Z,5.33
2019-05-11T03:53:03.481Z,7.60
2019-05-11T03:54:04.493Z,5.60
2019-05-11T03:55:05.800Z,5.55
2019-05-11T03:56:06.817Z,4.83
2019-05-11T03:57:07.822Z,7.15
2019-05-11T03:58:08.845Z,7.20
2019-05-11T03:59:09.848Z,5.25
2019-05-11T04:00:11.266Z,6.65
2019-05-11T04:01:12.276Z,5.83
2019-05-11T04:02:13.298Z,8.13
2019-05-11T04:03:14.310Z,5.83
2019-05-11T04:04:16.498Z,5.83
2019-05-11T04:05:17.944Z,4.55
2019-05-11T04:06:18.969Z,8.05
2019-05-11T04:07:19.984Z,5.33
2019-05-11T04:08:20.992Z,6.12
2019-05-11T04:09:22.001Z,5.25
2019-05-11T04:10:25.350Z,7.17
2019-05-11T04:11:25.950Z,6.90
2019-05-11T04:12:34.642Z,5.80
2019-05-11T04:13:29.865Z,5.00
2019-05-11T04:14:30.877Z,5.00
2019-05-11T04:15:31.898Z,8.18
2019-05-11T04:16:33.031Z,5.90
2019-05-11T04:17:34.150Z,5.05
2019-05-11T04:18:35.152Z,5.15
2019-05-11T04:19:36.172Z,8.05
2019-05-11T04:20:37.265Z,4.28
2019-05-11T04:21:38.461Z,4.70
2019-05-11T04:22:39.470Z,5.58
2019-05-11T04:23:40.477Z,6.55
2019-05-11T04:24:41.492Z,6.45
2019-05-11T04:25:42.505Z,5.20
2019-05-11T04:26:43.530Z,6.05
2019-05-11T04:27:44.537Z,5.17
2019-05-11T04:28:45.552Z,6.72
2019-05-11T04:29:46.564Z,5.42
2019-05-11T04:30:47.578Z,4.70
2019-05-11T04:31:48.599Z,6.20
2019-05-11T04:32:49.612Z,7.92
2019-05-11T04:33:50.624Z,5.00
2019-05-11T04:34:51.635Z,5.78
2019-05-11T04:35:52.653Z,5.83
2019-05-11T04:36:53.672Z,8.00
2019-05-11T04:37:54.942Z,3.92
2019-05-11T04:38:55.956Z,4.87
2019-05-11T04:39:56.966Z,3.80
2019-05-11T04:40:57.981Z,7.22
2019-05-11T04:41:59.047Z,6.72
2019-05-11T04:43:00.065Z,6.25
2019-05-11T04:44:01.071Z,5.90
2019-05-11T04:45:04.590Z,7.70
2019-05-11T04:46:05.629Z,9.25
2019-05-11T04:47:06.661Z,7.92
2019-05-11T04:48:07.664Z,6.00
2019-05-11T04:49:08.939Z,5.28
2019-05-11T04:50:10.643Z,8.30
2019-05-11T04:51:11.656Z,4.83
2019-05-11T04:52:12.685Z,7.12
2019-05-11T04:53:13.693Z,4.90
2019-05-11T04:54:14.726Z,7.15
2019-05-11T04:55:15.813Z,7.08
2019-05-11T04:56:16.825Z,4.55
2019-05-11T04:57:17.840Z,4.87
2019-05-11T04:58:18.865Z,5.80
2019-05-11T04:59:20.171Z,6.83
2019-05-11T05:00:21.577Z,5.15
2019-05-11T05:01:22.593Z,7.75
2019-05-11T05:02:23.616Z,7.55
2019-05-11T05:03:39.649Z,7.33
2019-05-11T05:04:27.536Z,4.83
2019-05-11T05:05:28.544Z,4.55
2019-05-11T05:06:29.547Z,4.97
2019-05-11T05:07:30.572Z,7.03
2019-05-11T05:08:31.588Z,4.58
2019-05-11T05:09:36.245Z,4.58
2019-05-11T05:10:35.514Z,5.83
2019-05-11T05:11:38.373Z,4.60
2019-05-11T05:12:39.717Z,7.45
2019-05-11T05:13:40.723Z,4.22
2019-05-11T05:14:41.852Z,5.78
2019-05-11T05:15:42.859Z,4.92
2019-05-11T05:16:44.070Z,6.10
2019-05-11T05:17:45.168Z,6.75
2019-05-11T05:18:46.267Z,5.17
2019-05-11T05:19:47.284Z,5.37
2019-05-11T05:20:48.576Z,6.62
2019-05-11T05:21:49.589Z,6.22
2019-05-11T05:22:50.607Z,5.85
2019-05-11T05:23:51.616Z,6.37
2019-05-11T05:24:52.626Z,5.67
2019-05-11T05:25:53.652Z,7.15
2019-05-11T05:26:54.651Z,4.45
2019-05-11T05:27:55.672Z,6.10
2019-05-11T05:28:56.688Z,4.70
2019-05-11T05:29:57.710Z,8.10
2019-05-11T05:30:58.733Z,4.33
2019-05-11T05:31:59.741Z,5.35
2019-05-11T05:33:00.807Z,6.22
2019-05-11T05:34:01.821Z,7.47
2019-05-11T05:35:05.028Z,4.50
2019-05-11T05:36:06.044Z,5.50
2019-05-11T05:37:07.088Z,4.75
2019-05-11T05:38:08.117Z,6.20
2019-05-11T05:39:09.564Z,6.72
2019-05-11T05:40:11.452Z,6.40
2019-05-11T05:41:12.517Z,5.17
2019-05-11T05:42:13.532Z,6.28
2019-05-11T05:43:25.989Z,7.28
2019-05-11T05:44:17.921Z,5.50
2019-05-11T05:45:18.935Z,4.67
2019-05-11T05:46:19.939Z,5.53
2019-05-11T05:47:20.964Z,8.30
2019-05-11T05:48:22.008Z,6.65
2019-05-11T05:49:23.212Z,5.47
2019-05-11T05:50:24.253Z,5.15
2019-05-11T05:51:25.274Z,7.37
2019-05-11T05:52:27.019Z,8.20
2019-05-11T05:53:28.026Z,5.40
2019-05-11T05:54:29.051Z,4.90
2019-05-11T05:55:30.143Z,3.62
2019-05-11T05:56:31.239Z,6.45
2019-05-11T05:57:32.344Z,4.85
2019-05-11T05:58:33.379Z,4.17
2019-05-11T05:59:34.913Z,4.37
2019-05-11T06:00:35.944Z,6.83
2019-05-11T06:01:37.013Z,4.90
2019-05-11T06:02:38.041Z,5.75
2019-05-11T06:03:39.099Z,4.05
2019-05-11T06:04:41.031Z,8.20
2019-05-11T06:05:42.108Z,5.45
2019-05-11T06:06:43.119Z,4.50
2019-05-11T06:07:44.138Z,5.53
2019-05-11T06:08:45.149Z,4.53
2019-05-11T06:09:46.321Z,6.97
2019-05-11T06:10:47.443Z,5.17
2019-05-11T06:11:48.526Z,5.20
2019-05-11T06:12:49.636Z,6.00
2019-05-11T06:13:50.648Z,7.17
2019-05-11T06:14:51.662Z,4.90
2019-05-11T06:15:52.672Z,5.22
2019-05-11T06:17:00.133Z,5.42
2019-05-11T06:18:01.235Z,5.50
2019-05-11T06:19:02.247Z,7.12
2019-05-11T06:20:04.422Z,5.10
2019-05-11T06:21:05.967Z,4.70
2019-05-11T06:22:06.985Z,4.40
2019-05-11T06:23:08.005Z,6.37
2019-05-11T06:24:09.152Z,4.30
2019-05-11T06:25:10.335Z,5.85
2019-05-11T06:26:11.350Z,5.75
2019-05-11T06:27:12.375Z,8.00
2019-05-11T06:28:13.392Z,5.20
2019-05-11T06:29:14.396Z,4.75
2019-05-11T06:30:16.064Z,4.10
2019-05-11T06:31:17.080Z,6.35
2019-05-11T06:32:18.097Z,6.83
2019-05-11T06:33:19.111Z,4.45
2019-05-11T06:34:20.391Z,4.28
2019-05-11T06:35:22.701Z,7.22
2019-05-11T06:36:23.916Z,6.95
2019-05-11T06:37:25.260Z,5.25
2019-05-11T06:38:26.280Z,5.37
2019-05-11T06:39:27.313Z,5.10
2019-05-11T06:40:28.747Z,7.50
2019-05-11T06:41:29.940Z,4.80
2019-05-11T06:42:30.945Z,5.00
2019-05-11T06:43:31.963Z,6.30
2019-05-11T06:44:32.976Z,5.72
2019-05-11T06:45:34.188Z,7.08
2019-05-11T06:46:35.399Z,4.90
2019-05-11T06:47:36.515Z,5.85
2019-05-11T06:48:37.548Z,5.83
2019-05-11T06:49:38.572Z,6.42
2019-05-11T06:50:39.617Z,3.55
2019-05-11T06:51:40.767Z,4.90
2019-05-11T06:52:41.840Z,5.12
2019-05-11T06:53:42.858Z,7.70
2019-05-11T06:54:43.878Z,4.53
2019-05-11T06:55:44.888Z,4.80
2019-05-11T06:56:45.885Z,4.92
2019-05-11T06:57:46.901Z,5.92
2019-05-11T06:58:48.752Z,6.25
2019-05-11T06:59:49.907Z,4.85
2019-05-11T07:00:50.998Z,4.47
2019-05-11T07:01:52.008Z,5.90
2019-05-11T07:02:53.024Z,6.58
2019-05-11T07:03:54.348Z,6.33
2019-05-11T07:04:55.352Z,6.97
2019-05-11T07:05:56.369Z,4.83
2019-05-11T07:06:57.377Z,5.67
2019-05-11T07:07:58.398Z,5.10
2019-05-11T07:08:59.415Z,4.75
2019-05-11T07:10:00.663Z,5.92
2019-05-11T07:11:01.684Z,7.92
2019-05-11T07:12:02.972Z,5.28
2019-05-11T07:13:04.060Z,5.08
2019-05-11T07:14:19.370Z,5.28
2019-05-11T07:15:08.201Z,6.62
2019-05-11T07:16:09.212Z,5.12
2019-05-11T07:17:10.220Z,6.30
2019-05-11T07:18:11.262Z,5.22
2019-05-11T07:19:12.459Z,5.58
2019-05-11T07:20:13.672Z,5.90
2019-05-11T07:21:14.704Z,4.83
2019-05-11T07:22:16.013Z,9.10
2019-05-11T07:23:17.032Z,6.67
2019-05-11T07:24:18.060Z,8.10
2019-05-11T07:25:19.084Z,4.40
2019-05-11T07:26:20.100Z,5.75
2019-05-11T07:27:21.115Z,5.28
2019-05-11T07:28:22.137Z,7.22
2019-05-11T07:29:23.147Z,5.15
2019-05-11T07:30:24.164Z,5.70
2019-05-11T07:31:25.180Z,5.67
2019-05-11T07:32:26.421Z,7.83
2019-05-11T07:33:29.207Z,6.65
2019-05-11T07:34:30.265Z,4.35
2019-05-11T07:35:32.298Z,4.67
2019-05-11T07:36:33.300Z,6.10
2019-05-11T07:37:34.309Z,8.33
2019-05-11T07:38:35.323Z,4.08
2019-05-11T07:39:38.318Z,4.60
2019-05-11T07:40:39.260Z,4.90
2019-05-11T07:41:40.470Z,6.62
2019-05-11T07:42:41.481Z,7.47
2019-05-11T07:43:42.491Z,6.15
2019-05-11T07:44:43.519Z,4.67
2019-05-11T07:45:44.537Z,5.12
2019-05-11T07:46:45.569Z,6.10
2019-05-11T07:47:48.612Z,4.97
2019-05-11T07:48:49.507Z,4.40
2019-05-11T07:49:50.516Z,6.37
2019-05-11T07:50:51.531Z,6.62
2019-05-11T07:51:52.545Z,3.83
2019-05-11T07:52:53.568Z,5.85
2019-05-11T07:53:54.640Z,3.98
2019-05-11T07:54:57.852Z,7.05
2019-05-11T07:55:58.564Z,6.92
2019-05-11T07:56:59.573Z,6.92
2019-05-11T07:58:00.584Z,4.12
2019-05-11T07:59:01.608Z,4.95
2019-05-11T08:00:03.817Z,6.28
2019-05-11T08:01:05.037Z,3.50
2019-05-11T08:02:06.054Z,4.87
2019-05-11T08:03:08.990Z,5.42
2019-05-11T08:04:10.296Z,7.25
2019-05-11T08:05:11.416Z,4.55
2019-05-11T08:06:12.479Z,5.33
2019-05-11T08:07:13.551Z,5.20
2019-05-11T08:08:14.561Z,5.67
2019-05-11T08:09:15.592Z,4.62
2019-05-11T08:10:18.605Z,4.17
2019-05-11T08:11:19.532Z,5.35
2019-05-11T08:12:20.557Z,7.47
2019-05-11T08:13:21.556Z,6.78
2019-05-11T08:14:22.580Z,4.70
2019-05-11T08:15:23.592Z,5.47
2019-05-11T08:16:24.618Z,4.47
2019-05-11T08:17:25.726Z,6.12
2019-05-11T08:18:28.261Z,4.75
2019-05-11T08:19:29.461Z,4.95
2019-05-11T08:20:30.484Z,5.15
2019-05-11T08:21:31.497Z,7.00
2019-05-11T08:22:32.518Z,4.40
2019-05-11T08:23:33.520Z,4.97
2019-05-11T08:24:34.548Z,4.92
2019-05-11T08:25:37.829Z,5.22
2019-05-11T08:26:38.779Z,7.50
2019-05-11T08:27:39.892Z,5.95
2019-05-11T08:28:41.426Z,5.00
2019-05-11T08:29:42.748Z,4.50
2019-05-11T08:30:43.758Z,7.12
2019-05-11T08:31:44.772Z,4.60
2019-05-11T08:32:45.786Z,4.92
2019-05-11T08:33:47.989Z,5.47
2019-05-11T08:34:49.645Z,5.67
2019-05-11T08:35:50.658Z,4.70
2019-05-11T08:36:51.696Z,3.52
2019-05-11T08:37:52.713Z,3.80
2019-05-11T08:38:53.721Z,4.97
2019-05-11T08:39:54.744Z,4.80
2019-05-11T08:40:55.756Z,4.80
2019-05-11T08:41:58.781Z,4.97
2019-05-11T08:42:59.692Z,5.90
2019-05-11T08:44:00.725Z,6.67
2019-05-11T08:45:16.210Z,3.83
2019-05-11T08:46:04.653Z,5.12
2019-05-11T08:47:05.667Z,5.25
2019-05-11T08:48:08.150Z,6.25
2019-05-11T08:49:09.276Z,5.55
2019-05-11T08:50:10.619Z,5.72
2019-05-11T08:51:11.624Z,5.42
2019-05-11T08:52:12.648Z,6.35
2019-05-11T08:53:13.657Z,5.58
2019-05-11T08:54:14.681Z,4.35
2019-05-11T08:55:15.900Z,3.67
2019-05-11T08:56:18.903Z,4.70
2019-05-11T08:57:19.839Z,6.10
2019-05-11T08:58:20.852Z,3.85
2019-05-11T08:59:21.855Z,4.97
2019-05-11T09:00:22.886Z,4.37
2019-05-11T09:01:23.916Z,6.80
2019-05-11T09:02:24.937Z,6.53
2019-05-11T09:03:28.172Z,5.35
2019-05-11T09:04:29.058Z,5.05
2019-05-11T09:05:30.723Z,6.50
2019-05-11T09:06:31.732Z,7.35
2019-05-11T09:07:32.746Z,3.58
2019-05-11T09:08:33.766Z,4.22
2019-05-11T09:09:34.785Z,4.67
2019-05-11T09:10:37.607Z,7.10
2019-05-11T09:11:39.060Z,4.42
2019-05-11T09:12:40.228Z,4.60
2019-05-11T09:13:41.248Z,5.45
2019-05-11T09:14:42.260Z,6.33
2019-05-11T09:15:43.287Z,3.98
2019-05-11T09:16:44.316Z,5.10
2019-05-11T09:17:45.328Z,4.55
2019-05-11T09:18:47.964Z,4.65
2019-05-11T09:19:49.147Z,6.10
2019-05-11T09:20:50.192Z,3.67
2019-05-11T09:21:51.200Z,4.40
2019-05-11T09:22:52.220Z,3.10
2019-05-11T09:23:53.243Z,5.28
2019-05-11T09:24:54.293Z,3.95
2019-05-11T09:25:55.319Z,3.75
2019-05-11T09:26:58.377Z,3.75
2019-05-11T09:27:59.272Z,5.55
2019-05-11T09:29:00.303Z,4.10
2019-05-11T09:30:02.028Z,4.40
2019-05-11T09:31:03.060Z,3.85
2019-05-11T09:32:04.084Z,5.40
2019-05-11T09:33:05.115Z,5.00
2019-05-11T09:34:06.120Z,3.95
2019-05-11T09:35:08.315Z,4.37
2019-05-11T09:36:09.709Z,3.77
2019-05-11T09:37:10.804Z,5.80
2019-05-11T09:38:11.816Z,3.70
2019-05-11T09:39:12.844Z,4.53
2019-05-11T09:40:13.953Z,3.80
2019-05-11T09:41:14.988Z,6.40
2019-05-11T09:42:17.954Z,7.33
2019-05-11T09:43:18.940Z,6.00
2019-05-11T09:44:19.968Z,3.70
2019-05-11T09:45:20.996Z,4.62
2019-05-11T09:46:22.004Z,4.50
2019-05-11T09:47:23.024Z,3.22
2019-05-11T09:48:24.037Z,4.92
2019-05-11T09:49:40.018Z,4.00
2019-05-11T09:50:28.544Z,5.45
2019-05-11T09:51:29.722Z,3.77
2019-05-11T09:52:32.606Z,3.85
2019-05-11T09:53:33.852Z,4.05
2019-05-11T09:54:34.873Z,5.65
2019-05-11T09:55:35.917Z,3.72
2019-05-11T09:56:38.231Z,3.77
2019-05-11T09:57:39.465Z,3.90
2019-05-11T09:58:40.483Z,4.58
2019-05-11T09:59:41.499Z,6.03
2019-05-11T10:00:42.529Z,3.27
2019-05-11T10:01:43.739Z,3.67
2019-05-11T10:02:45.024Z,4.08
2019-05-11T10:03:48.213Z,5.10
2019-05-11T10:04:48.957Z,3.90
2019-05-11T10:05:49.984Z,3.25
2019-05-11T10:06:51.008Z,4.22
2019-05-11T10:07:52.025Z,5.90
2019-05-11T10:08:53.030Z,3.42
2019-05-11T10:09:54.045Z,3.75
2019-05-11T10:10:55.069Z,2.90
2019-05-11T10:11:58.367Z,3.77
2019-05-11T10:12:59.304Z,4.95
2019-05-11T10:14:00.336Z,3.45
2019-05-11T10:15:01.353Z,3.70
2019-05-11T10:16:07.114Z,2.60
2019-05-11T10:17:07.751Z,5.28
2019-05-11T10:18:08.719Z,4.28
2019-05-11T10:19:09.736Z,4.15
2019-05-11T10:20:11.041Z,4.08
2019-05-11T10:21:12.067Z,4.95
2019-05-11T10:22:13.088Z,5.70
2019-05-11T10:23:14.105Z,2.95
2019-05-11T10:24:17.155Z,3.55
2019-05-11T10:25:18.359Z,5.28
2019-05-11T10:26:19.484Z,5.70
2019-05-11T10:27:20.506Z,4.70
2019-05-11T10:28:21.541Z,4.47
2019-05-11T10:29:22.536Z,4.33
2019-05-11T10:30:23.759Z,4.55
2019-05-11T10:31:24.772Z,3.33
2019-05-11T10:32:25.788Z,3.98
2019-05-11T10:33:28.114Z,4.42
2019-05-11T10:34:29.415Z,4.05
2019-05-11T10:35:30.422Z,4.45
2019-05-11T10:36:31.452Z,2.98
2019-05-11T10:37:32.465Z,3.85
2019-05-11T10:38:33.472Z,4.45
2019-05-11T10:39:34.489Z,4.67
2019-05-11T10:40:35.500Z,3.10
2019-05-11T10:41:38.581Z,4.00
2019-05-11T10:42:39.431Z,3.02
2019-05-11T10:43:40.452Z,5.35
2019-05-11T10:44:41.459Z,3.60
2019-05-11T10:45:42.751Z,3.10
2019-05-11T10:46:43.780Z,3.45
2019-05-11T10:47:44.791Z,5.15
2019-05-11T10:48:47.948Z,5.10
2019-05-11T10:49:48.733Z,3.90
2019-05-11T10:50:49.750Z,3.70
2019-05-11T10:51:50.796Z,3.72
2019-05-11T10:52:51.804Z,5.12
2019-05-11T10:53:52.828Z,4.30
2019-05-11T10:54:53.840Z,3.85
2019-05-11T10:55:54.843Z,4.35
2019-05-11T10:56:57.925Z,6.20
2019-05-11T10:57:58.785Z,4.28
2019-05-11T10:58:59.811Z,3.98
2019-05-11T11:00:00.812Z,3.67
2019-05-11T11:01:01.828Z,4.67
2019-05-11T11:02:02.851Z,3.37
2019-05-11T11:03:03.864Z,2.58
2019-05-11T11:04:04.976Z,3.30
2019-05-11T11:05:08.087Z,3.85
2019-05-11T11:06:09.428Z,5.08
2019-05-11T11:07:10.448Z,3.40
2019-05-11T11:08:11.459Z,4.17
2019-05-11T11:09:12.459Z,3.83
2019-05-11T11:10:13.571Z,5.90
2019-05-11T11:11:14.576Z,4.30
2019-05-11T11:12:15.592Z,7.15
2019-05-11T11:13:18.652Z,3.52
2019-05-11T11:14:19.534Z,5.15
2019-05-11T11:15:20.745Z,4.42
2019-05-11T11:16:35.773Z,3.33
2019-05-11T11:17:24.687Z,3.37
2019-05-11T11:18:25.807Z,4.55
2019-05-11T11:19:28.948Z,5.70
2019-05-11T11:20:29.728Z,3.52
2019-05-11T11:21:30.736Z,3.75
2019-05-11T11:22:39.334Z,3.65
2019-05-11T11:23:34.712Z,5.22
2019-05-11T11:24:37.508Z,4.10
2019-05-11T11:25:38.660Z,3.80
2019-05-11T11:26:39.652Z,4.10
2019-05-11T11:27:40.674Z,4.75
2019-05-11T11:28:41.784Z,4.95
2019-05-11T11:29:42.829Z,3.58
2019-05-11T11:30:43.836Z,5.17
2019-05-11T11:31:44.947Z,4.80
2019-05-11T11:32:48.100Z,5.40
2019-05-11T11:33:49.241Z,3.75
2019-05-11T11:34:50.315Z,4.65
2019-05-11T11:35:51.320Z,3.52
2019-05-11T11:36:52.564Z,4.75
2019-05-11T11:37:53.656Z,4.15
2019-05-11T11:38:54.664Z,3.67
2019-05-11T11:39:57.974Z,4.05
2019-05-11T11:40:58.829Z,4.03
2019-05-11T11:41:59.912Z,4.20
2019-05-11T11:43:00.932Z,3.17
2019-05-11T11:44:01.937Z,5.53
2019-05-11T11:45:08.371Z,2.85
2019-05-11T11:46:09.420Z,6.25
2019-05-11T11:47:10.427Z,3.72
2019-05-11T11:48:11.448Z,3.55
2019-05-11T11:49:12.469Z,3.62
2019-05-11T11:50:13.681Z,5.97
2019-05-11T11:51:14.687Z,5.00
2019-05-11T11:52:15.707Z,5.30
2019-05-11T11:53:18.831Z,3.30
2019-05-11T11:54:20.356Z,4.97
2019-05-11T11:55:21.372Z,4.90
2019-05-11T11:56:22.440Z,3.30
2019-05-11T11:57:23.491Z,2.85
2019-05-11T11:58:24.519Z,3.35
2019-05-11T11:59:25.530Z,6.22
2019-05-11T12:00:28.773Z,3.40
2019-05-11T12:01:29.703Z,3.25
2019-05-11T12:02:30.704Z,3.40
2019-05-11T12:03:31.724Z,5.28
2019-05-11T12:04:32.742Z,4.17
2019-05-11T12:05:33.763Z,3.55
2019-05-11T12:06:34.879Z,3.33
2019-05-11T12:07:35.885Z,4.45
2019-05-11T12:08:38.980Z,6.12
2019-05-11T12:09:39.823Z,3.20
2019-05-11T12:10:40.815Z,4.12
2019-05-11T12:11:41.832Z,3.30
2019-05-11T12:12:42.856Z,5.95
2019-05-11T12:13:43.863Z,4.25
2019-05-11T12:14:44.883Z,3.58
2019-05-11T12:15:48.011Z,3.55
2019-05-11T12:17:03.648Z,3.98
2019-05-11T12:17:51.732Z,4.03
2019-05-11T12:18:52.743Z,4.10
2019-05-11T12:19:53.789Z,3.55
2019-05-11T12:20:54.864Z,3.27
2019-05-11T12:21:58.077Z,5.20
2019-05-11T12:22:59.038Z,3.72
2019-05-11T12:24:00.033Z,4.42
2019-05-11T12:25:01.161Z,4.37
2019-05-11T12:26:02.173Z,6.22
2019-05-11T12:27:03.185Z,2.72
2019-05-11T12:28:04.207Z,3.52
2019-05-11T12:29:05.238Z,3.02
2019-05-11T12:30:09.000Z,4.60
2019-05-11T12:31:10.156Z,4.83
2019-05-11T12:32:13.063Z,5.85
2019-05-11T12:33:14.088Z,3.92
2019-05-11T12:34:15.102Z,3.20
2019-05-11T12:35:17.883Z,5.42
2019-05-11T12:36:19.120Z,4.22
2019-05-11T12:37:21.991Z,3.00
2019-05-11T12:38:23.057Z,3.87
2019-05-11T12:39:24.066Z,4.50
2019-05-11T12:40:25.308Z,5.28
2019-05-11T12:41:28.005Z,3.75
2019-05-11T12:42:29.236Z,3.85
2019-05-11T12:43:30.262Z,3.42
2019-05-11T12:44:31.271Z,4.72
2019-05-11T12:45:32.307Z,3.35
2019-05-11T12:46:33.324Z,4.03
2019-05-11T12:47:34.428Z,3.05
2019-05-11T12:48:37.750Z,5.58
2019-05-11T12:49:39.031Z,3.22
2019-05-11T12:50:40.276Z,3.10
2019-05-11T12:51:41.288Z,4.50
2019-05-11T12:52:42.501Z,5.00
2019-05-11T12:53:43.549Z,3.85
2019-05-11T12:54:44.548Z,3.40
2019-05-11T12:55:48.199Z,5.30
2019-05-11T12:56:49.137Z,3.45
2019-05-11T12:57:50.295Z,5.72
2019-05-11T12:58:51.316Z,3.55
2019-05-11T12:59:52.328Z,3.30
2019-05-11T13:00:53.336Z,3.25
2019-05-11T13:01:54.356Z,5.78
2019-05-11T13:02:55.364Z,2.85
2019-05-11T13:03:58.028Z,3.60
2019-05-11T13:04:59.225Z,3.42
2019-05-11T13:06:00.245Z,4.33
2019-05-11T13:07:01.256Z,3.67
2019-05-11T13:08:02.280Z,3.40
2019-05-11T13:09:07.675Z,3.45
2019-05-11T13:10:09.055Z,5.33
2019-05-11T13:11:10.074Z,6.67
2019-05-11T13:12:11.064Z,3.17
2019-05-11T13:13:12.083Z,3.30
2019-05-11T13:14:13.135Z,3.00
2019-05-11T13:15:14.266Z,4.80
2019-05-11T13:16:15.435Z,4.47
2019-05-11T13:17:18.589Z,3.80
2019-05-11T13:18:19.371Z,2.90
2019-05-11T13:19:20.393Z,4.33
2019-05-11T13:20:22.004Z,4.22
2019-05-11T13:21:23.016Z,2.72
2019-05-11T13:22:24.035Z,5.00
2019-05-11T13:23:25.047Z,4.10
2019-05-11T13:24:28.053Z,6.83
2019-05-11T13:25:29.013Z,4.42
2019-05-11T13:26:30.028Z,5.12
2019-05-11T13:27:31.045Z,4.20
2019-05-11T13:28:32.353Z,6.95
2019-05-11T13:29:33.378Z,4.20
2019-05-11T13:30:34.405Z,3.58
2019-05-11T13:31:35.622Z,3.90
2019-05-11T13:32:38.507Z,5.22
2019-05-11T13:33:39.549Z,5.87